createdAt,value
2023-03-06T00:00:28.418Z,93.72
2023-03-06T00:02:55.269Z,93.86
2023-03-06T00:05:22.132Z,93.91
2023-03-06T00:07:48.689Z,93.87
2023-03-06T00:10:17.804Z,93.85
2023-03-06T00:12:44.555Z,94.33
2023-03-06T00:15:13.593Z,93.87
2023-03-06T00:17:40.707Z,93.78
2023-03-06T00:20:09.396Z,93.82
2023-03-06T00:22:35.940Z,94.17
2023-03-06T00:25:02.492Z,94.12
2023-03-06T00:27:30.678Z,94.53
2023-03-06T00:29:57.944Z,93.88
2023-03-06T00:32:27.414Z,94.18
2023-03-06T00:34:55.638Z,94.82
2023-03-06T00:37:23.575Z,94.56
2023-03-06T00:39:50.562Z,94.82
2023-03-06T00:42:17.937Z,94.24
2023-03-06T00:44:45.044Z,93.34
2023-03-06T00:47:12.114Z,92.83
2023-03-06T00:49:40.073Z,93.29
2023-03-06T00:52:06.956Z,94.39
2023-03-06T00:54:33.503Z,94.14
2023-03-06T00:57:00.128Z,94.83
2023-03-06T00:59:26.730Z,95.80
2023-03-06T01:01:53.503Z,95.79
2023-03-06T01:04:20.150Z,94.60
2023-03-06T01:06:49.713Z,94.77
2023-03-06T01:09:16.288Z,94.81
2023-03-06T01:11:43.056Z,94.76
2023-03-06T01:14:11.052Z,94.73
2023-03-06T01:16:37.699Z,95.08
2023-03-06T01:19:04.378Z,95.40
2023-03-06T01:21:31.111Z,94.70
2023-03-06T01:23:59.891Z,95.27
2023-03-06T01:26:26.769Z,95.07
2023-03-06T01:28:53.340Z,95.21
2023-03-06T01:31:20.060Z,95.31
2023-03-06T01:33:46.887Z,95.32
2023-03-06T01:36:14.087Z,95.05
2023-03-06T01:38:40.665Z,95.10
2023-03-06T01:41:09.406Z,94.99
2023-03-06T01:43:38.803Z,95.34
2023-03-06T01:46:29.391Z,95.25
2023-03-06T01:48:59.214Z,95.37
2023-03-06T01:51:30.321Z,95.24
2023-03-06T01:53:59.708Z,95.10
2023-03-06T01:56:28.648Z,95.20
2023-03-06T01:58:56.041Z,95.25
2023-03-06T02:01:23.351Z,95.52
2023-03-06T02:03:51.059Z,95.44
2023-03-06T02:06:18.144Z,95.26
2023-03-06T02:08:45.122Z,95.23
2023-03-06T02:11:14.314Z,95.13
2023-03-06T02:13:43.332Z,95.14
2023-03-06T02:16:10.960Z,95.03
2023-03-06T02:18:39.862Z,95.37
2023-03-06T02:21:08.547Z,95.17
2023-03-06T02:23:45.696Z,95.30
2023-03-06T02:26:14.860Z,95.58
2023-03-06T02:28:41.798Z,95.59
2023-03-06T02:31:16.955Z,95.54
2023-03-06T02:33:43.666Z,95.98
2023-03-06T02:36:15.711Z,95.84
2023-03-06T02:38:47.511Z,95.93
2023-03-06T02:41:15.689Z,95.60
2023-03-06T02:43:43.866Z,95.96
2023-03-06T02:46:10.642Z,95.72
2023-03-06T02:48:37.307Z,96.14
2023-03-06T02:51:03.952Z,96.01
2023-03-06T02:53:32.144Z,95.92
2023-03-06T02:55:59.866Z,96.04
2023-03-06T02:58:27.936Z,96.05
2023-03-06T03:00:54.661Z,95.94
2023-03-06T03:03:21.369Z,96.22
2023-03-06T03:05:48.041Z,96.21
2023-03-06T03:08:22.647Z,96.20
2023-03-06T03:10:52.645Z,96.03
2023-03-06T03:13:19.861Z,95.83
2023-03-06T03:15:59.036Z,96.24
2023-03-06T03:18:25.769Z,96.21
2023-03-06T03:20:53.480Z,96.27
2023-03-06T03:23:20.225Z,96.45
2023-03-06T03:25:46.767Z,96.10
2023-03-06T03:28:13.695Z,96.23
2023-03-06T03:30:41.328Z,96.31
2023-03-06T03:33:10.865Z,96.42
2023-03-06T03:35:38.461Z,96.48
2023-03-06T03:38:05.151Z,96.54
2023-03-06T03:40:31.743Z,96.24
2023-03-06T03:42:59.240Z,96.61
2023-03-06T03:45:25.891Z,96.61
2023-03-06T03:47:52.568Z,96.88
2023-03-06T03:50:22.611Z,96.85
2023-03-06T03:52:49.764Z,96.94
2023-03-06T03:55:16.599Z,96.63
2023-03-06T03:57:43.211Z,96.35
2023-03-06T04:00:11.867Z,96.55
2023-03-06T04:02:41.648Z,96.26
2023-03-06T04:05:21.388Z,96.33
2023-03-06T04:07:48.651Z,96.82
2023-03-06T04:10:16.199Z,96.45
2023-03-06T04:12:43.716Z,96.37
2023-03-06T04:15:11.526Z,96.38
2023-03-06T04:17:38.895Z,97.01
2023-03-06T04:20:09.943Z,97.03
2023-03-06T04:22:38.131Z,97.09
2023-03-06T04:25:05.479Z,96.79
2023-03-06T04:27:32.159Z,96.84
2023-03-06T04:29:58.990Z,97.00
2023-03-06T04:32:26.073Z,96.83
2023-03-06T04:34:52.718Z,96.68
2023-03-06T04:37:21.694Z,96.78
2023-03-06T04:39:50.094Z,97.12
2023-03-06T04:42:16.961Z,97.44
2023-03-06T04:44:43.515Z,97.64
2023-03-06T04:47:10.443Z,97.85
2023-03-06T04:49:37.144Z,98.13
2023-03-06T04:52:04.220Z,98.03
2023-03-06T04:54:31.175Z,97.94
2023-03-06T04:57:00.338Z,97.71
2023-03-06T04:59:27.237Z,97.79
2023-03-06T05:01:54.248Z,97.73
2023-03-06T05:04:20.901Z,97.75
2023-03-06T05:06:47.474Z,97.59
2023-03-06T05:09:14.010Z,97.67
2023-03-06T05:11:40.861Z,97.19
2023-03-06T05:14:08.870Z,97.01
2023-03-06T05:16:35.538Z,97.43
2023-03-06T05:19:02.093Z,96.97
2023-03-06T05:21:28.748Z,96.68
2023-03-06T05:23:55.300Z,96.31
2023-03-06T05:26:22.025Z,95.92
2023-03-06T05:28:48.548Z,96.51
2023-03-06T05:31:16.883Z,96.23
2023-03-06T05:33:43.550Z,95.55
2023-03-06T05:36:11.187Z,95.89
2023-03-06T05:38:38.016Z,95.94
2023-03-06T05:41:05.042Z,95.59
2023-03-06T05:43:31.580Z,95.25
2023-03-06T05:46:02.173Z,94.63
2023-03-06T05:48:30.283Z,94.91
2023-03-06T05:50:57.109Z,94.46
2023-03-06T05:53:23.685Z,94.92
2023-03-06T05:55:56.446Z,94.72
2023-03-06T05:58:23.203Z,94.47
2023-03-06T06:00:49.700Z,93.98
2023-03-06T06:03:16.394Z,94.00
2023-03-06T06:05:44.344Z,93.92
2023-03-06T06:08:10.945Z,94.00
2023-03-06T06:10:38.184Z,93.92
2023-03-06T06:13:04.840Z,94.11
2023-03-06T06:15:31.484Z,94.21
2023-03-06T06:17:58.224Z,93.71
2023-03-06T06:20:25.355Z,93.61
2023-03-06T06:22:53.380Z,93.54
2023-03-06T06:25:19.997Z,93.64
2023-03-06T06:27:46.659Z,93.54
2023-03-06T06:30:13.515Z,93.62
2023-03-06T06:32:40.253Z,93.94
2023-03-06T06:35:07.394Z,93.59
2023-03-06T06:37:34.014Z,93.54
2023-03-06T06:40:01.940Z,93.82
2023-03-06T06:42:36.961Z,93.41
2023-03-06T06:45:06.815Z,93.15
2023-03-06T06:47:33.348Z,92.93
2023-03-06T06:49:59.998Z,93.05
2023-03-06T06:52:26.655Z,92.62
2023-03-06T06:54:53.505Z,91.29
2023-03-06T06:57:21.389Z,91.96
2023-03-06T06:59:48.023Z,92.10
2023-03-06T07:02:15.448Z,91.85
2023-03-06T07:05:00.426Z,92.21
2023-03-06T07:07:29.088Z,92.46
2023-03-06T07:09:55.827Z,92.53
2023-03-06T07:12:23.803Z,92.73
2023-03-06T07:14:50.429Z,92.54
2023-03-06T07:17:17.058Z,92.73
2023-03-06T07:19:43.568Z,92.44
2023-03-06T07:22:10.362Z,92.29
2023-03-06T07:24:36.916Z,92.13
2023-03-06T07:27:03.640Z,92.35
2023-03-06T07:29:31.559Z,91.98
2023-03-06T07:31:58.196Z,92.06
2023-03-06T07:34:24.801Z,91.85
2023-03-06T07:36:51.431Z,91.34
2023-03-06T07:39:18.339Z,92.06
2023-03-06T07:41:44.972Z,92.13
2023-03-06T07:44:11.589Z,91.94
2023-03-06T07:46:39.592Z,91.83
2023-03-06T07:49:06.118Z,91.77
2023-03-06T07:51:32.854Z,91.31
2023-03-06T07:53:59.408Z,90.86
2023-03-06T07:56:26.085Z,90.83
2023-03-06T07:58:52.907Z,91.46
2023-03-06T08:01:21.498Z,90.72
2023-03-06T08:03:49.707Z,91.04
2023-03-06T08:06:18.499Z,91.58
2023-03-06T08:08:46.606Z,90.56
2023-03-06T08:11:15.187Z,90.45
2023-03-06T08:13:42.237Z,90.33
2023-03-06T08:16:09.766Z,89.93
2023-03-06T08:18:36.486Z,89.87
2023-03-06T08:21:06.656Z,90.22
2023-03-06T08:23:33.935Z,89.11
2023-03-06T08:26:02.958Z,89.21
2023-03-06T08:28:29.861Z,89.25
2023-03-06T08:30:57.700Z,89.36
2023-03-06T08:33:24.327Z,89.46
2023-03-06T08:35:52.114Z,89.65
2023-03-06T08:38:20.024Z,88.90
2023-03-06T08:40:46.813Z,88.89
2023-03-06T08:43:14.365Z,88.60
2023-03-06T08:45:41.021Z,88.72
2023-03-06T08:48:07.754Z,88.44
2023-03-06T08:50:34.343Z,87.03
2023-03-06T08:53:00.854Z,87.32
2023-03-06T08:55:28.933Z,86.94
2023-03-06T08:57:55.464Z,87.38
2023-03-06T09:00:22.538Z,87.08
2023-03-06T09:02:49.120Z,87.24
2023-03-06T09:05:15.835Z,86.16
2023-03-06T09:07:42.389Z,86.07
2023-03-06T09:10:14.989Z,85.35
2023-03-06T09:12:50.095Z,85.04
2023-03-06T09:15:17.938Z,84.50
2023-03-06T09:17:44.525Z,84.06
2023-03-06T09:20:12.342Z,84.10
2023-03-06T09:22:38.946Z,84.39
2023-03-06T09:25:08.378Z,84.78
2023-03-06T09:27:35.041Z,84.45
2023-03-06T09:30:03.950Z,82.42
2023-03-06T09:32:30.527Z,82.82
2023-03-06T09:34:57.143Z,82.49
2023-03-06T09:37:23.726Z,82.83
2023-03-06T09:39:50.325Z,82.22
2023-03-06T09:42:20.123Z,82.84
2023-03-06T09:44:51.900Z,82.63
2023-03-06T09:47:48.989Z,79.45
2023-03-06T09:50:26.258Z,80.46
2023-03-06T09:53:15.411Z,79.16
2023-03-06T09:55:45.757Z,79.89
2023-03-06T09:58:16.201Z,78.90
2023-03-06T10:00:50.967Z,79.09
2023-03-06T10:03:24.576Z,77.39
2023-03-06T10:05:57.150Z,77.78
2023-03-06T10:08:28.588Z,76.66
2023-03-06T10:11:00.177Z,77.92
2023-03-06T10:13:32.537Z,78.13
2023-03-06T10:16:06.922Z,77.76
2023-03-06T10:18:35.046Z,76.93
2023-03-06T10:21:18.804Z,75.75
2023-03-06T10:23:52.828Z,75.89
2023-03-06T10:26:22.542Z,76.82
2023-03-06T10:28:56.941Z,76.27
2023-03-06T10:31:26.326Z,75.87
2023-03-06T10:33:56.879Z,75.40
2023-03-06T10:36:26.055Z,76.04
2023-03-06T10:38:53.784Z,74.48
2023-03-06T10:41:25.123Z,73.45
2023-03-06T10:44:18.023Z,74.61
2023-03-06T10:46:46.346Z,75.35
2023-03-06T10:49:29.399Z,75.45
2023-03-06T10:51:57.862Z,73.09
2023-03-06T10:54:25.258Z,72.50
2023-03-06T10:56:51.881Z,72.27
2023-03-06T10:59:20.506Z,73.60
2023-03-06T11:01:48.798Z,72.03
2023-03-06T11:04:22.842Z,71.02
2023-03-06T11:07:05.788Z,72.04
2023-03-06T11:09:33.197Z,69.65
2023-03-06T11:12:20.436Z,69.81
2023-03-06T11:14:47.076Z,69.01
2023-03-06T11:17:27.616Z,69.92
2023-03-06T11:20:15.388Z,69.65
2023-03-06T11:22:49.240Z,69.94
2023-03-06T11:25:19.036Z,68.69
2023-03-06T11:27:49.212Z,69.33
2023-03-06T11:30:20.234Z,68.32
2023-03-06T11:32:51.191Z,68.91
2023-03-06T11:35:24.525Z,69.50
2023-03-06T11:37:56.210Z,68.14
2023-03-06T11:40:28.246Z,70.10
2023-03-06T11:43:03.001Z,65.59
2023-03-06T11:45:34.392Z,65.19
2023-03-06T11:48:14.753Z,66.77
2023-03-06T11:50:43.655Z,66.91
2023-03-06T11:53:14.523Z,67.05
2023-03-06T11:55:49.912Z,65.56
2023-03-06T11:58:38.333Z,65.32
2023-03-06T12:01:09.135Z,65.79
2023-03-06T12:04:07.062Z,65.15
2023-03-06T12:06:45.678Z,66.56
2023-03-06T12:09:24.747Z,66.74
2023-03-06T12:12:03.844Z,65.88
2023-03-06T12:14:45.429Z,66.03
2023-03-06T12:17:20.979Z,66.41
2023-03-06T12:20:00.573Z,65.92
2023-03-06T12:22:41.661Z,66.62
2023-03-06T12:25:42.218Z,67.08
2023-03-06T12:28:31.005Z,65.85
2023-03-06T12:31:22.483Z,64.27
2023-03-06T12:34:01.032Z,65.04
2023-03-06T12:36:38.495Z,65.53
2023-03-06T12:39:17.033Z,65.79
2023-03-06T12:41:57.620Z,64.88
2023-03-06T12:44:49.574Z,65.32
2023-03-06T12:47:19.954Z,65.19
2023-03-06T12:49:53.120Z,65.29
2023-03-06T12:52:29.646Z,65.70
2023-03-06T12:54:58.395Z,66.51
2023-03-06T12:57:26.616Z,67.29
2023-03-06T12:59:54.206Z,69.49
2023-03-06T13:03:05.076Z,68.45
2023-03-06T13:05:42.513Z,68.26
2023-03-06T13:08:35.430Z,68.61
2023-03-06T13:11:28.019Z,67.68
2023-03-06T13:13:56.801Z,68.97
2023-03-06T13:16:28.943Z,69.41
2023-03-06T13:19:03.914Z,69.47
2023-03-06T13:22:01.899Z,69.21
2023-03-06T13:24:30.598Z,68.33
2023-03-06T13:27:03.421Z,67.26
2023-03-06T13:29:52.404Z,67.62
2023-03-06T13:32:30.037Z,67.67
2023-03-06T13:34:56.709Z,68.92
2023-03-06T13:37:48.476Z,67.24
2023-03-06T13:40:34.432Z,67.02
2023-03-06T13:43:21.786Z,65.62
2023-03-06T13:45:49.968Z,66.01
2023-03-06T13:48:44.402Z,65.46
2023-03-06T13:51:22.852Z,65.03
2023-03-06T13:54:30.293Z,66.03
2023-03-06T13:57:23.029Z,65.57
2023-03-06T14:00:34.305Z,66.40
2023-03-06T14:03:27.086Z,66.83
2023-03-06T14:05:53.867Z,66.50
2023-03-06T14:08:22.680Z,66.16
2023-03-06T14:11:00.597Z,66.81
2023-03-06T14:13:41.877Z,67.66
2023-03-06T14:16:19.844Z,65.64
2023-03-06T14:18:51.129Z,65.45
2023-03-06T14:21:28.018Z,65.16
2023-03-06T14:24:00.552Z,64.63
2023-03-06T14:26:31.706Z,65.02
2023-03-06T14:28:59.683Z,65.74
2023-03-06T14:31:30.129Z,64.33
2023-03-06T14:33:59.980Z,64.58
2023-03-06T14:36:33.808Z,64.51
2023-03-06T14:39:02.979Z,65.22
2023-03-06T14:41:31.545Z,64.72
2023-03-06T14:44:08.727Z,64.83
2023-03-06T14:46:35.910Z,64.49
2023-03-06T14:49:07.318Z,64.83
2023-03-06T14:51:40.663Z,65.54
2023-03-06T14:54:14.091Z,65.47
2023-03-06T14:56:42.134Z,66.63
2023-03-06T14:59:13.753Z,67.09
2023-03-06T15:01:42.145Z,68.14
2023-03-06T15:04:19.822Z,68.98
2023-03-06T15:06:46.691Z,69.95
2023-03-06T15:09:17.069Z,70.41
2023-03-06T15:11:55.785Z,70.52
2023-03-06T15:14:30.326Z,70.12
2023-03-06T15:17:14.278Z,71.07
2023-03-06T15:19:42.494Z,71.11
2023-03-06T15:22:25.364Z,73.34
2023-03-06T15:24:52.302Z,72.52
2023-03-06T15:27:26.735Z,72.74
2023-03-06T15:29:53.398Z,73.09
2023-03-06T15:32:30.351Z,73.66
2023-03-06T15:35:30.622Z,73.42
2023-03-06T15:37:58.219Z,73.87
2023-03-06T15:40:26.174Z,75.13
2023-03-06T15:42:53.372Z,75.21
2023-03-06T15:45:22.161Z,75.39
2023-03-06T15:47:51.021Z,76.09
2023-03-06T15:50:19.651Z,76.43
2023-03-06T15:52:48.770Z,76.64
2023-03-06T15:55:18.248Z,77.13
2023-03-06T15:57:49.692Z,77.19
2023-03-06T16:00:27.561Z,76.71
2023-03-06T16:02:55.046Z,77.29
2023-03-06T16:05:22.479Z,77.30
2023-03-06T16:07:50.677Z,77.27
2023-03-06T16:10:19.227Z,77.56
2023-03-06T16:12:49.301Z,79.25
2023-03-06T16:15:18.979Z,80.22
2023-03-06T16:17:46.131Z,79.82
2023-03-06T16:20:17.841Z,80.26
2023-03-06T16:22:45.261Z,81.22
2023-03-06T16:25:13.741Z,81.60
2023-03-06T16:27:40.447Z,82.16
2023-03-06T16:30:11.632Z,81.58
2023-03-06T16:32:38.246Z,82.40
2023-03-06T16:35:05.393Z,82.64
2023-03-06T16:37:32.169Z,82.06
2023-03-06T16:39:59.114Z,82.99
2023-03-06T16:42:27.504Z,82.28
2023-03-06T16:44:54.250Z,82.19
2023-03-06T16:47:20.920Z,82.78
2023-03-06T16:49:47.508Z,83.14
2023-03-06T16:52:14.443Z,82.55
2023-03-06T16:54:42.399Z,83.10
2023-03-06T16:57:13.913Z,83.32
2023-03-06T16:59:42.364Z,83.03
2023-03-06T17:02:09.800Z,83.38
2023-03-06T17:04:36.630Z,83.62
2023-03-06T17:07:03.691Z,83.48
2023-03-06T17:09:30.941Z,83.82
2023-03-06T17:11:57.630Z,84.08
2023-03-06T17:14:24.161Z,83.82
2023-03-06T17:16:53.773Z,83.95
2023-03-06T17:19:20.901Z,84.69
2023-03-06T17:21:49.951Z,84.34
2023-03-06T17:24:16.488Z,84.77
2023-03-06T17:26:43.070Z,85.38
2023-03-06T17:29:09.592Z,85.41
2023-03-06T17:31:36.188Z,85.47
2023-03-06T17:34:04.042Z,85.51
2023-03-06T17:36:31.700Z,85.62
2023-03-06T17:38:59.863Z,85.87
2023-03-06T17:41:26.806Z,86.73
2023-03-06T17:43:55.957Z,86.83
2023-03-06T17:46:22.764Z,87.21
2023-03-06T17:48:49.722Z,87.59
2023-03-06T17:51:18.126Z,87.83
2023-03-06T17:53:44.854Z,88.11
2023-03-06T17:56:13.836Z,87.58
2023-03-06T17:58:40.512Z,88.45
2023-03-06T18:01:11.268Z,88.27
2023-03-06T18:03:38.720Z,88.22
2023-03-06T18:06:05.996Z,88.46
2023-03-06T18:08:33.955Z,88.40
2023-03-06T18:11:01.222Z,89.24
2023-03-06T18:13:27.836Z,89.00
2023-03-06T18:15:54.405Z,88.99
2023-03-06T18:18:21.124Z,88.74
2023-03-06T18:20:47.899Z,89.11
2023-03-06T18:23:14.492Z,89.56
2023-03-06T18:25:42.430Z,89.34
2023-03-06T18:28:09.179Z,90.00
2023-03-06T18:30:36.092Z,90.36
2023-03-06T18:33:02.834Z,90.19
2023-03-06T18:35:29.411Z,90.47
2023-03-06T18:37:56.433Z,90.93
2023-03-06T18:40:24.793Z,91.30
2023-03-06T18:42:53.191Z,91.44
2023-03-06T18:45:20.192Z,91.70
2023-03-06T18:47:46.967Z,91.59
2023-03-06T18:50:13.480Z,91.46
2023-03-06T18:52:40.069Z,91.29
2023-03-06T18:55:07.094Z,91.25
2023-03-06T18:57:33.771Z,91.31
2023-03-06T19:00:01.955Z,91.87
2023-03-06T19:02:28.910Z,91.83
2023-03-06T19:04:55.439Z,91.96
2023-03-06T19:07:22.469Z,91.79
2023-03-06T19:09:49.068Z,91.93
2023-03-06T19:12:16.202Z,92.12
2023-03-06T19:14:43.022Z,92.34
2023-03-06T19:17:11.187Z,92.22
2023-03-06T19:19:39.305Z,92.48
2023-03-06T19:22:05.995Z,92.71
2023-03-06T19:24:32.573Z,92.64
2023-03-06T19:26:59.244Z,92.77
2023-03-06T19:29:25.878Z,92.72
2023-03-06T19:31:52.658Z,93.08
2023-03-06T19:34:20.543Z,92.83
2023-03-06T19:36:49.943Z,92.98
2023-03-06T19:39:16.510Z,93.35
2023-03-06T19:41:43.147Z,93.53
2023-03-06T19:44:09.668Z,93.58
2023-03-06T19:46:36.367Z,93.89
2023-03-06T19:49:04.427Z,93.84
2023-03-06T19:51:32.577Z,94.14
2023-03-06T19:53:59.105Z,94.29
2023-03-06T19:56:30.287Z,94.34
2023-03-06T19:58:57.421Z,94.50
2023-03-06T20:01:26.290Z,94.43
2023-03-06T20:03:54.342Z,94.30
2023-03-06T20:06:20.846Z,94.46
2023-03-06T20:08:48.935Z,94.54
2023-03-06T20:11:17.679Z,94.68
2023-03-06T20:13:47.498Z,94.42
2023-03-06T20:16:14.373Z,94.58
2023-03-06T20:18:40.923Z,94.25
2023-03-06T20:21:07.724Z,94.65
2023-03-06T20:23:35.046Z,94.62
2023-03-06T20:26:04.593Z,94.56
2023-03-06T20:28:31.216Z,94.45
2023-03-06T20:30:58.285Z,94.52
2023-03-06T20:33:24.915Z,94.64
2023-03-06T20:35:51.446Z,94.92
2023-03-06T20:38:19.895Z,94.74
2023-03-06T20:40:48.266Z,95.35
2023-03-06T20:43:16.181Z,96.03
2023-03-06T20:45:42.756Z,95.82
2023-03-06T20:48:09.290Z,96.08
2023-03-06T20:50:35.816Z,96.29
2023-03-06T20:53:02.345Z,96.23
2023-03-06T20:55:28.899Z,96.06
2023-03-06T20:57:55.393Z,95.90
2023-03-06T21:00:23.253Z,95.46
2023-03-06T21:02:49.792Z,96.01
2023-03-06T21:05:16.550Z,96.47
2023-03-06T21:07:43.140Z,96.44
2023-03-06T21:10:10.501Z,96.99
2023-03-06T21:12:36.998Z,96.35
2023-03-06T21:15:04.246Z,96.67
2023-03-06T21:17:32.157Z,96.87
2023-03-06T21:19:59.155Z,97.08
2023-03-06T21:22:25.678Z,97.31
2023-03-06T21:24:52.269Z,97.00
2023-03-06T21:27:18.887Z,96.05
2023-03-06T21:29:45.444Z,92.82
2023-03-06T21:32:11.984Z,88.47
2023-03-06T21:34:39.854Z,86.92
2023-03-06T21:37:06.382Z,85.54
2023-03-06T21:39:32.940Z,85.82
2023-03-06T21:41:59.465Z,85.96
2023-03-06T21:44:26.071Z,85.34
2023-03-06T21:46:52.573Z,85.48
2023-03-06T21:49:19.480Z,85.71
2023-03-06T21:51:47.638Z,85.56
2023-03-06T21:54:14.159Z,86.26
2023-03-06T21:56:40.704Z,86.28
2023-03-06T21:59:07.233Z,86.15
2023-03-06T22:01:33.973Z,86.19
2023-03-06T22:04:00.651Z,84.82
2023-03-06T22:06:29.055Z,84.98
2023-03-06T22:08:58.317Z,85.48
2023-03-06T22:11:26.309Z,85.48
2023-03-06T22:13:52.867Z,86.13
2023-03-06T22:16:19.956Z,86.52
2023-03-06T22:18:47.489Z,86.95
2023-03-06T22:21:16.224Z,86.99
2023-03-06T22:23:43.232Z,87.72
2023-03-06T22:26:12.510Z,88.01
2023-03-06T22:28:39.617Z,88.26
2023-03-06T22:31:08.152Z,88.35
2023-03-06T22:33:35.187Z,88.45
2023-03-06T22:36:02.366Z,88.97
2023-03-06T22:38:28.902Z,87.75
2023-03-06T22:40:56.405Z,87.95
2023-03-06T22:43:24.294Z,88.82
2023-03-06T22:45:50.803Z,88.86
2023-03-06T22:48:17.335Z,89.04
2023-03-06T22:50:44.184Z,89.40
2023-03-06T22:53:10.998Z,89.66
2023-03-06T22:55:37.514Z,89.56
2023-03-06T22:58:04.058Z,90.00
2023-03-06T23:00:31.950Z,90.05
2023-03-06T23:02:58.452Z,90.33
2023-03-06T23:05:29.159Z,89.87
2023-03-06T23:07:56.108Z,90.12
2023-03-06T23:10:22.616Z,88.36
2023-03-06T23:13:07.835Z,88.39
2023-03-06T23:15:54.203Z,88.30
2023-03-06T23:18:39.819Z,85.91
2023-03-06T23:21:25.407Z,86.32
2023-03-06T23:24:10.720Z,83.65
2023-03-06T23:26:37.324Z,84.42
2023-03-06T23:29:03.880Z,82.85
2023-03-06T23:31:31.871Z,82.78
2023-03-06T23:34:00.386Z,82.32
2023-03-06T23:36:28.174Z,81.83
2023-03-06T23:38:54.932Z,81.87
2023-03-06T23:41:22.893Z,82.17
2023-03-06T23:43:50.710Z,81.93
2023-03-06T23:46:20.375Z,82.59
2023-03-06T23:48:48.341Z,83.38
2023-03-06T23:51:17.392Z,82.55
2023-03-06T23:53:45.064Z,83.11
2023-03-06T23:56:12.624Z,82.89
2023-03-06T23:58:39.825Z,82.99
